sensor_id;sensor_type;location;lat;lon;timestamp;pressure;altitude;pressure_sealevel;temperature;humidity
48364;BME280;34170;54.364;18.582;2023-08-20T00:02:03;100633.75;;;22.41;100.00
48364;BME280;34170;54.364;18.582;2023-08-20T00:04:34;100629.38;;;22.33;100.00
48364;BME280;34170;54.364;18.582;2023-08-20T00:07:03;100619.25;;;22.34;100.00
48364;BME280;34170;54.364;18.582;2023-08-20T00:09:31;100611.88;;;22.34;100.00
48364;BME280;34170;54.364;18.582;2023-08-20T00:12:00;100626.00;;;22.38;100.00
48364;BME280;34170;54.364;18.582;2023-08-20T00:14:52;100624.09;;;22.32;100.00
48364;BME280;34170;54.364;18.582;2023-08-20T00:35:06;100620.97;;;22.01;100.00
48364;BME280;34170;54.364;18.582;2023-08-20T00:37:36;100624.56;;;22.02;100.00
48364;BME280;34170;54.364;18.582;2023-08-20T00:40:04;100611.06;;;21.94;100.00
48364;BME280;34170;54.364;18.582;2023-08-20T00:42:32;100618.44;;;22.00;100.00
48364;BME280;34170;54.364;18.582;2023-08-20T00:45:00;100620.13;;;22.01;100.00
48364;BME280;34170;54.364;18.582;2023-08-20T00:47:28;100621.16;;;22.06;100.00
48364;BME280;34170;54.364;18.582;2023-08-20T00:49:56;100613.78;;;22.07;100.00
48364;BME280;34170;54.364;18.582;2023-08-20T00:52:24;100623.28;;;22.11;100.00
48364;BME280;34170;54.364;18.582;2023-08-20T00:54:52;100607.88;;;22.10;100.00
48364;BME280;34170;54.364;18.582;2023-08-20T00:57:22;100631.28;;;22.13;100.00
48364;BME280;34170;54.364;18.582;2023-08-20T00:59:50;100628.13;;;22.09;100.00
48364;BME280;34170;54.364;18.582;2023-08-20T01:02:20;100609.78;;;22.03;100.00
48364;BME280;34170;54.364;18.582;2023-08-20T01:04:49;100619.25;;;22.07;100.00
48364;BME280;34170;54.364;18.582;2023-08-20T01:12:46;100615.28;;;22.09;100.00
48364;BME280;34170;54.364;18.582;2023-08-20T01:15:13;100610.88;;;22.02;100.00
48364;BME280;34170;54.364;18.582;2023-08-20T01:17:43;100622.88;;;22.07;100.00
48364;BME280;34170;54.364;18.582;2023-08-20T01:20:13;100617.19;;;22.02;100.00
48364;BME280;34170;54.364;18.582;2023-08-20T01:25:44;100622.44;;;22.04;100.00
48364;BME280;34170;54.364;18.582;2023-08-20T01:28:30;100631.06;;;22.07;100.00
48364;BME280;34170;54.364;18.582;2023-08-20T01:30:59;100616.75;;;21.99;100.00
48364;BME280;34170;54.364;18.582;2023-08-20T01:33:28;100631.28;;;22.06;100.00
48364;BME280;34170;54.364;18.582;2023-08-20T01:35:58;100628.56;;;21.99;100.00
48364;BME280;34170;54.364;18.582;2023-08-20T01:38:25;100625.41;;;21.96;100.00
48364;BME280;34170;54.364;18.582;2023-08-20T01:40:53;100611.53;;;21.84;100.00
48364;BME280;34170;54.364;18.582;2023-08-20T01:43:21;100632.97;;;21.87;100.00
48364;BME280;34170;54.364;18.582;2023-08-20T01:45:48;100626.25;;;21.89;100.00
48364;BME280;34170;54.364;18.582;2023-08-20T01:48:16;100627.28;;;21.82;100.00
48364;BME280;34170;54.364;18.582;2023-08-20T01:50:43;100631.72;;;21.83;100.00
48364;BME280;34170;54.364;18.582;2023-08-20T01:53:13;100619.06;;;21.82;100.00
48364;BME280;34170;54.364;18.582;2023-08-20T01:55:42;100624.78;;;21.80;100.00
48364;BME280;34170;54.364;18.582;2023-08-20T01:58:09;100626.66;;;21.86;100.00
48364;BME280;34170;54.364;18.582;2023-08-20T02:00:38;100631.50;;;21.84;100.00
48364;BME280;34170;54.364;18.582;2023-08-20T02:03:06;100629.59;;;21.78;100.00
48364;BME280;34170;54.364;18.582;2023-08-20T02:05:34;100617.19;;;21.82;100.00
48364;BME280;34170;54.364;18.582;2023-08-20T02:08:01;100635.94;;;21.92;100.00
48364;BME280;34170;54.364;18.582;2023-08-20T02:10:31;100631.94;;;21.95;100.00
48364;BME280;34170;54.364;18.582;2023-08-20T02:12:59;100616.13;;;21.90;100.00
48364;BME280;34170;54.364;18.582;2023-08-20T02:15:26;100636.34;;;21.96;100.00
48364;BME280;34170;54.364;18.582;2023-08-20T02:17:54;100633.41;;;21.90;100.00
48364;BME280;34170;54.364;18.582;2023-08-20T02:20:23;100628.13;;;21.89;100.00
48364;BME280;34170;54.364;18.582;2023-08-20T02:22:51;100629.81;;;21.83;100.00
48364;BME280;34170;54.364;18.582;2023-08-20T02:25:18;100633.41;;;21.77;100.00
48364;BME280;34170;54.364;18.582;2023-08-20T02:27:46;100633.00;;;21.80;100.00
48364;BME280;34170;54.364;18.582;2023-08-20T02:30:14;100635.09;;;21.78;100.00
48364;BME280;34170;54.364;18.582;2023-08-20T02:32:41;100628.97;;;21.76;100.00
48364;BME280;34170;54.364;18.582;2023-08-20T02:35:09;100623.72;;;21.81;100.00
48364;BME280;34170;54.364;18.582;2023-08-20T02:37:36;100625.84;;;21.86;100.00
48364;BME280;34170;54.364;18.582;2023-08-20T02:40:05;100625.84;;;21.86;100.00
48364;BME280;34170;54.364;18.582;2023-08-20T02:42:33;100619.53;;;21.79;100.00
48364;BME280;34170;54.364;18.582;2023-08-20T02:45:00;100617.41;;;21.74;100.00
48364;BME280;34170;54.364;18.582;2023-08-20T02:47:29;100616.38;;;21.75;100.00
48364;BME280;34170;54.364;18.582;2023-08-20T02:49:57;100608.56;;;21.72;100.00
48364;BME280;34170;54.364;18.582;2023-08-20T02:52:25;100616.38;;;21.75;100.00
48364;BME280;34170;54.364;18.582;2023-08-20T02:54:52;100611.53;;;21.77;100.00
48364;BME280;34170;54.364;18.582;2023-08-20T02:57:20;100616.56;;;21.80;100.00
48364;BME280;34170;54.364;18.582;2023-08-20T02:59:49;100589.41;;;21.72;100.00
48364;BME280;34170;54.364;18.582;2023-08-20T03:02:16;100603.09;;;21.72;100.00
48364;BME280;34170;54.364;18.582;2023-08-20T03:04:45;100610.03;;;21.81;100.00
48364;BME280;34170;54.364;18.582;2023-08-20T03:07:12;100603.09;;;21.79;100.00
48364;BME280;34170;54.364;18.582;2023-08-20T03:09:40;100600.78;;;21.69;100.00
48364;BME280;34170;54.364;18.582;2023-08-20T03:12:08;100607.53;;;21.73;100.00
48364;BME280;34170;54.364;18.582;2023-08-20T03:14:35;100608.16;;;21.75;100.00
48364;BME280;34170;54.364;18.582;2023-08-20T03:17:03;100606.47;;;21.61;100.00
48364;BME280;34170;54.364;18.582;2023-08-20T03:19:33;100611.09;;;21.67;100.00
48364;BME280;34170;54.364;18.582;2023-08-20T03:22:01;100612.16;;;21.66;100.00
48364;BME280;34170;54.364;18.582;2023-08-20T03:24:29;100614.91;;;21.66;100.00
48364;BME280;34170;54.364;18.582;2023-08-20T03:26:56;100607.09;;;21.69;100.00
48364;BME280;34170;54.364;18.582;2023-08-20T03:29:24;100604.38;;;21.63;100.00
48364;BME280;34170;54.364;18.582;2023-08-20T03:31:51;100619.72;;;21.64;100.00
48364;BME280;34170;54.364;18.582;2023-08-20T03:34:20;100617.81;;;21.58;100.00
48364;BME280;34170;54.364;18.582;2023-08-20T03:36:47;100624.53;;;21.55;100.00
48364;BME280;34170;54.364;18.582;2023-08-20T03:39:15;100622.25;;;21.59;100.00
48364;BME280;34170;54.364;18.582;2023-08-20T03:41:42;100625.81;;;21.73;100.00
48364;BME280;34170;54.364;18.582;2023-08-20T03:44:10;100609.59;;;21.71;100.00
48364;BME280;34170;54.364;18.582;2023-08-20T03:46:37;100619.31;;;21.80;100.00
48364;BME280;34170;54.364;18.582;2023-08-20T03:49:05;100625.81;;;21.99;100.00
48364;BME280;34170;54.364;18.582;2023-08-20T03:51:33;100616.09;;;22.03;100.00
48364;BME280;34170;54.364;18.582;2023-08-20T03:54:00;100615.69;;;22.00;100.00
48364;BME280;34170;54.364;18.582;2023-08-20T03:56:28;100622.44;;;21.97;100.00
48364;BME280;34170;54.364;18.582;2023-08-20T03:58:56;100622.44;;;22.11;100.00
48364;BME280;34170;54.364;18.582;2023-08-20T04:01:23;100631.91;;;22.21;100.00
48364;BME280;34170;54.364;18.582;2023-08-20T04:03:51;100617.56;;;22.26;100.00
48364;BME280;34170;54.364;18.582;2023-08-20T04:06:18;100632.91;;;22.47;100.00
48364;BME280;34170;54.364;18.582;2023-08-20T04:08:46;100627.84;;;22.51;100.00
48364;BME280;34170;54.364;18.582;2023-08-20T04:11:14;100624.00;;;22.58;100.00
48364;BME280;34170;54.364;18.582;2023-08-20T04:13:42;100628.59;;;22.71;100.00
48364;BME280;34170;54.364;18.582;2023-08-20T04:16:11;100630.09;;;22.74;100.00
48364;BME280;34170;54.364;18.582;2023-08-20T04:18:39;100635.91;;;22.91;100.00
48364;BME280;34170;54.364;18.582;2023-08-20T04:21:06;100617.28;;;23.13;100.00
48364;BME280;34170;54.364;18.582;2023-08-20T04:23:37;100624.16;;;23.54;100.00
48364;BME280;34170;54.364;18.582;2023-08-20T04:26:05;100635.25;;;23.66;100.00
48364;BME280;34170;54.364;18.582;2023-08-20T04:28:33;100625.06;;;23.98;100.00
48364;BME280;34170;54.364;18.582;2023-08-20T04:31:00;100618.16;;;24.14;100.00
48364;BME280;34170;54.364;18.582;2023-08-20T04:33:40;100632.53;;;24.34;100.00
48364;BME280;34170;54.364;18.582;2023-08-20T04:36:07;100623.00;;;24.55;100.00
48364;BME280;34170;54.364;18.582;2023-08-20T04:38:35;100633.66;;;25.01;98.09
48364;BME280;34170;54.364;18.582;2023-08-20T04:41:03;100643.38;;;25.34;95.46
48364;BME280;34170;54.364;18.582;2023-08-20T04:43:31;100640.31;;;25.23;96.03
48364;BME280;34170;54.364;18.582;2023-08-20T04:46:00;100643.13;;;25.05;96.23
48364;BME280;34170;54.364;18.582;2023-08-20T04:48:29;100622.19;;;25.04;96.86
48364;BME280;34170;54.364;18.582;2023-08-20T04:50:57;100626.47;;;25.00;97.05
48364;BME280;34170;54.364;18.582;2023-08-20T04:53:24;100646.63;;;25.12;96.56
48364;BME280;34170;54.364;18.582;2023-08-20T04:55:52;100643.13;;;25.05;96.58
48364;BME280;34170;54.364;18.582;2023-08-20T04:58:20;100642.53;;;25.03;97.74
48364;BME280;34170;54.364;18.582;2023-08-20T05:00:47;100632.78;;;25.19;95.87
48364;BME280;34170;54.364;18.582;2023-08-20T05:03:15;100650.34;;;25.36;97.55
48364;BME280;34170;54.364;18.582;2023-08-20T05:05:48;100645.22;;;25.94;94.19
48364;BME280;34170;54.364;18.582;2023-08-20T05:08:16;100648.69;;;27.29;83.61
48364;BME280;34170;54.364;18.582;2023-08-20T05:10:44;100651.25;;;28.71;74.52
48364;BME280;34170;54.364;18.582;2023-08-20T05:13:12;100665.66;;;31.00;62.99
48364;BME280;34170;54.364;18.582;2023-08-20T05:15:39;100654.88;;;32.53;54.48
48364;BME280;34170;54.364;18.582;2023-08-20T05:18:07;100660.41;;;33.68;47.43
48364;BME280;34170;54.364;18.582;2023-08-20T05:20:35;100659.69;;;34.21;45.04
48364;BME280;34170;54.364;18.582;2023-08-20T05:23:03;100670.66;;;35.08;45.31
48364;BME280;34170;54.364;18.582;2023-08-20T05:25:31;100671.44;;;35.71;42.11
48364;BME280;34170;54.364;18.582;2023-08-20T05:27:59;100680.28;;;35.40;42.84
48364;BME280;34170;54.364;18.582;2023-08-20T05:30:28;100673.59;;;34.98;42.17
48364;BME280;34170;54.364;18.582;2023-08-20T05:32:56;100676.72;;;34.72;45.24
48364;BME280;34170;54.364;18.582;2023-08-20T05:35:23;100674.28;;;33.78;46.53
48364;BME280;34170;54.364;18.582;2023-08-20T05:37:51;100671.66;;;32.11;50.70
48364;BME280;34170;54.364;18.582;2023-08-20T05:40:18;100665.84;;;30.88;56.17
48364;BME280;34170;54.364;18.582;2023-08-20T05:42:47;100657.41;;;28.79;67.18
48364;BME280;34170;54.364;18.582;2023-08-20T05:45:19;100677.69;;;30.63;60.25
48364;BME280;34170;54.364;18.582;2023-08-20T05:47:48;100675.84;;;29.66;65.83
48364;BME280;34170;54.364;18.582;2023-08-20T05:50:16;100673.34;;;30.83;59.67
48364;BME280;34170;54.364;18.582;2023-08-20T05:52:44;100683.03;;;32.00;53.03
48364;BME280;34170;54.364;18.582;2023-08-20T05:55:12;100681.56;;;31.25;55.55
48364;BME280;34170;54.364;18.582;2023-08-20T05:57:41;100683.31;;;30.78;57.79
48364;BME280;34170;54.364;18.582;2023-08-20T06:00:10;100685.09;;;30.47;58.40
48364;BME280;34170;54.364;18.582;2023-08-20T06:02:41;100684.97;;;29.67;64.53
48364;BME280;34170;54.364;18.582;2023-08-20T06:05:10;100665.91;;;28.72;70.39
48364;BME280;34170;54.364;18.582;2023-08-20T06:07:37;100685.56;;;27.11;82.26
48364;BME280;34170;54.364;18.582;2023-08-20T06:10:06;100677.56;;;26.69;86.99
48364;BME280;34170;54.364;18.582;2023-08-20T06:12:33;100678.03;;;26.78;86.82
48364;BME280;34170;54.364;18.582;2023-08-20T06:15:02;100686.53;;;26.76;88.15
48364;BME280;34170;54.364;18.582;2023-08-20T06:17:30;100690.97;;;27.18;84.81
48364;BME280;34170;54.364;18.582;2023-08-20T06:19:57;100693.53;;;27.65;81.27
48364;BME280;34170;54.364;18.582;2023-08-20T06:22:25;100691.22;;;28.08;77.47
48364;BME280;34170;54.364;18.582;2023-08-20T06:24:53;100691.56;;;28.28;74.35
48364;BME280;34170;54.364;18.582;2023-08-20T06:27:20;100679.63;;;28.84;70.47
48364;BME280;34170;54.364;18.582;2023-08-20T06:29:48;100691.34;;;28.69;72.07
48364;BME280;34170;54.364;18.582;2023-08-20T06:32:15;100686.31;;;28.49;72.62
48364;BME280;34170;54.364;18.582;2023-08-20T06:34:43;100682.00;;;28.97;70.85
48364;BME280;34170;54.364;18.582;2023-08-20T06:37:10;100694.09;;;28.52;73.46
48364;BME280;34170;54.364;18.582;2023-08-20T06:39:38;100691.84;;;31.40;59.67
48364;BME280;34170;54.364;18.582;2023-08-20T06:42:06;100692.97;;;34.89;46.15
48364;BME280;34170;54.364;18.582;2023-08-20T06:44:33;100704.81;;;38.12;37.77
48364;BME280;34170;54.364;18.582;2023-08-20T06:47:02;100700.16;;;36.70;39.60
48364;BME280;34170;54.364;18.582;2023-08-20T06:49:30;100704.91;;;37.62;37.99
48364;BME280;34170;54.364;18.582;2023-08-20T06:51:58;100703.88;;;40.19;33.99
48364;BME280;34170;54.364;18.582;2023-08-20T06:54:25;100714.03;;;39.33;34.21
48364;BME280;34170;54.364;18.582;2023-08-20T06:56:53;100707.72;;;41.00;31.57
48364;BME280;34170;54.364;18.582;2023-08-20T06:59:20;100708.88;;;40.69;31.15
48364;BME280;34170;54.364;18.582;2023-08-20T07:01:48;100692.31;;;41.48;31.00
48364;BME280;34170;54.364;18.582;2023-08-20T07:04:16;100693.81;;;42.71;29.18
48364;BME280;34170;54.364;18.582;2023-08-20T07:06:43;100693.81;;;42.71;29.18
48364;BME280;34170;54.364;18.582;2023-08-20T07:09:11;100712.34;;;43.46;27.05
48364;BME280;34170;54.364;18.582;2023-08-20T07:11:38;100706.28;;;44.32;25.68
48364;BME280;34170;54.364;18.582;2023-08-20T07:14:06;100690.31;;;42.98;27.39
48364;BME280;34170;54.364;18.582;2023-08-20T07:16:33;100685.78;;;39.46;32.62
48364;BME280;34170;54.364;18.582;2023-08-20T07:19:01;100691.81;;;38.96;33.35
48364;BME280;34170;54.364;18.582;2023-08-20T07:21:29;100693.34;;;42.69;28.39
48364;BME280;34170;54.364;18.582;2023-08-20T07:23:56;100696.97;;;44.15;26.14
48364;BME280;34170;54.364;18.582;2023-08-20T07:26:24;100690.78;;;40.79;30.66
48364;BME280;34170;54.364;18.582;2023-08-20T07:28:51;100686.66;;;42.73;28.30
48364;BME280;34170;54.364;18.582;2023-08-20T07:31:26;100681.88;;;41.82;28.90
48364;BME280;34170;54.364;18.582;2023-08-20T07:33:55;100697.69;;;40.52;31.01
48364;BME280;34170;54.364;18.582;2023-08-20T07:36:24;100669.41;;;40.99;30.27
48364;BME280;34170;54.364;18.582;2023-08-20T07:38:53;100691.88;;;40.87;31.29
48364;BME280;34170;54.364;18.582;2023-08-20T07:41:21;100681.00;;;40.76;31.18
48364;BME280;34170;54.364;18.582;2023-08-20T07:43:49;100687.81;;;42.02;29.28
48364;BME280;34170;54.364;18.582;2023-08-20T07:46:17;100690.38;;;41.95;29.42
48364;BME280;34170;54.364;18.582;2023-08-20T07:48:45;100694.25;;;42.36;28.44
48364;BME280;34170;54.364;18.582;2023-08-20T07:51:12;100689.63;;;40.80;30.80
48364;BME280;34170;54.364;18.582;2023-08-20T07:53:40;100683.81;;;40.29;31.60
48364;BME280;34170;54.364;18.582;2023-08-20T07:56:08;100690.56;;;39.63;33.76
48364;BME280;34170;54.364;18.582;2023-08-20T07:58:36;100689.44;;;41.06;30.93
48364;BME280;34170;54.364;18.582;2023-08-20T08:01:04;100676.03;;;42.82;28.22
48364;BME280;34170;54.364;18.582;2023-08-20T08:03:31;100692.91;;;42.91;27.75
48364;BME280;34170;54.364;18.582;2023-08-20T08:05:59;100688.88;;;44.02;26.40
48364;BME280;34170;54.364;18.582;2023-08-20T08:08:27;100712.97;;;45.23;25.14
48364;BME280;34170;54.364;18.582;2023-08-20T08:10:54;100713.56;;;43.73;26.94
48364;BME280;34170;54.364;18.582;2023-08-20T08:13:22;100688.13;;;42.34;28.67
48364;BME280;34170;54.364;18.582;2023-08-20T08:15:50;100705.03;;;42.09;29.74
48364;BME280;34170;54.364;18.582;2023-08-20T08:18:19;100700.91;;;42.64;28.64
48364;BME280;34170;54.364;18.582;2023-08-20T08:20:47;100705.00;;;41.12;31.30
48364;BME280;34170;54.364;18.582;2023-08-20T08:23:15;100694.69;;;40.87;31.00
48364;BME280;34170;54.364;18.582;2023-08-20T08:25:42;100694.72;;;38.82;34.36
48364;BME280;34170;54.364;18.582;2023-08-20T08:28:10;100685.13;;;39.58;33.77
48364;BME280;34170;54.364;18.582;2023-08-20T08:30:38;100674.34;;;36.45;38.45
48364;BME280;34170;54.364;18.582;2023-08-20T08:33:07;100673.41;;;38.41;36.26
48364;BME280;34170;54.364;18.582;2023-08-20T08:35:35;100676.16;;;38.01;35.52
48364;BME280;34170;54.364;18.582;2023-08-20T08:38:03;100673.69;;;39.63;33.48
48364;BME280;34170;54.364;18.582;2023-08-20T08:40:31;100672.16;;;36.56;38.55
48364;BME280;34170;54.364;18.582;2023-08-20T08:43:00;100653.03;;;33.82;45.94
48364;BME280;34170;54.364;18.582;2023-08-20T08:45:29;100661.84;;;34.53;45.32
48364;BME280;34170;54.364;18.582;2023-08-20T08:48:02;100666.25;;;35.45;43.30
48364;BME280;34170;54.364;18.582;2023-08-20T08:50:31;100671.34;;;34.52;44.67
48364;BME280;34170;54.364;18.582;2023-08-20T08:52:59;100661.84;;;33.94;47.81
48364;BME280;34170;54.364;18.582;2023-08-20T08:55:27;100667.91;;;34.60;45.42
48364;BME280;34170;54.364;18.582;2023-08-20T08:57:55;100690.19;;;36.03;41.57
48364;BME280;34170;54.364;18.582;2023-08-20T09:00:23;100669.88;;;36.86;38.93
48364;BME280;34170;54.364;18.582;2023-08-20T09:02:50;100681.91;;;37.51;37.77
48364;BME280;34170;54.364;18.582;2023-08-20T09:05:18;100689.34;;;38.55;36.25
48364;BME280;34170;54.364;18.582;2023-08-20T09:07:45;100681.16;;;37.82;36.96
48364;BME280;34170;54.364;18.582;2023-08-20T09:10:16;100695.53;;;39.32;34.50
48364;BME280;34170;54.364;18.582;2023-08-20T09:12:47;100684.03;;;37.54;37.57
48364;BME280;34170;54.364;18.582;2023-08-20T09:15:15;100692.72;;;39.58;33.37
48364;BME280;34170;54.364;18.582;2023-08-20T09:17:42;100681.63;;;39.70;33.77
48364;BME280;34170;54.364;18.582;2023-08-20T09:20:10;100692.69;;;37.80;35.30
48364;BME280;34170;54.364;18.582;2023-08-20T09:22:39;100700.25;;;38.02;35.96
48364;BME280;34170;54.364;18.582;2023-08-20T09:25:07;100702.53;;;37.55;37.63
48364;BME280;34170;54.364;18.582;2023-08-20T09:27:42;100687.75;;;38.62;35.41
48364;BME280;34170;54.364;18.582;2023-08-20T09:30:18;100700.00;;;39.50;33.17
48364;BME280;34170;54.364;18.582;2023-08-20T09:33:11;100696.66;;;39.22;33.53
48364;BME280;34170;54.364;18.582;2023-08-20T09:35:48;100700.28;;;37.80;36.12
48364;BME280;34170;54.364;18.582;2023-08-20T09:38:19;100711.28;;;37.17;37.75
48364;BME280;34170;54.364;18.582;2023-08-20T09:40:49;100700.59;;;36.91;38.70
48364;BME280;34170;54.364;18.582;2023-08-20T09:43:17;100699.09;;;37.35;38.65
48364;BME280;34170;54.364;18.582;2023-08-20T09:45:46;100701.38;;;37.06;39.34
48364;BME280;34170;54.364;18.582;2023-08-20T09:48:18;100704.13;;;35.89;41.55
48364;BME280;34170;54.364;18.582;2023-08-20T09:50:51;100696.81;;;35.94;41.31
48364;BME280;34170;54.364;18.582;2023-08-20T09:53:23;100709.69;;;35.76;41.93
48364;BME280;34170;54.364;18.582;2023-08-20T09:55:56;100695.78;;;34.07;45.46
48364;BME280;34170;54.364;18.582;2023-08-20T09:58:29;100693.06;;;33.96;46.55
48364;BME280;34170;54.364;18.582;2023-08-20T10:00:57;100702.34;;;32.97;49.45
48364;BME280;34170;54.364;18.582;2023-08-20T10:03:25;100695.00;;;33.22;50.65
48364;BME280;34170;54.364;18.582;2023-08-20T10:05:54;100699.44;;;31.96;54.39
48364;BME280;34170;54.364;18.582;2023-08-20T10:08:22;100697.22;;;32.24;54.31
48364;BME280;34170;54.364;18.582;2023-08-20T10:10:50;100705.16;;;32.87;52.94
48364;BME280;34170;54.364;18.582;2023-08-20T10:13:17;100681.56;;;32.64;53.55
48364;BME280;34170;54.364;18.582;2023-08-20T10:15:45;100688.91;;;33.15;51.55
48364;BME280;34170;54.364;18.582;2023-08-20T10:18:13;100677.13;;;32.53;53.52
48364;BME280;34170;54.364;18.582;2023-08-20T10:20:41;100693.22;;;32.76;51.73
48364;BME280;34170;54.364;18.582;2023-08-20T10:23:12;100690.53;;;34.34;48.21
48364;BME280;34170;54.364;18.582;2023-08-20T10:25:42;100691.91;;;33.73;48.25
48364;BME280;34170;54.364;18.582;2023-08-20T10:28:20;100692.53;;;33.15;49.78
48364;BME280;34170;54.364;18.582;2023-08-20T10:31:15;100686.84;;;33.36;49.31
48364;BME280;34170;54.364;18.582;2023-08-20T10:36:19;100681.59;;;32.48;52.67
48364;BME280;34170;54.364;18.582;2023-08-20T10:38:50;100664.41;;;31.80;55.62
48364;BME280;34170;54.364;18.582;2023-08-20T10:41:24;100673.78;;;31.32;57.65
48364;BME280;34170;54.364;18.582;2023-08-20T10:43:52;100670.47;;;31.46;56.77
48364;BME280;34170;54.364;18.582;2023-08-20T10:48:57;100675.13;;;30.56;59.90
48364;BME280;34170;54.364;18.582;2023-08-20T10:51:31;100676.44;;;29.41;66.48
48364;BME280;34170;54.364;18.582;2023-08-20T10:56:53;100669.41;;;29.06;70.52
48364;BME280;34170;54.364;18.582;2023-08-20T10:59:28;100663.31;;;29.32;69.90
48364;BME280;34170;54.364;18.582;2023-08-20T11:01:59;100678.28;;;29.90;67.18
48364;BME280;34170;54.364;18.582;2023-08-20T11:04:31;100670.34;;;29.72;68.07
48364;BME280;34170;54.364;18.582;2023-08-20T11:07:01;100684.72;;;28.92;72.31
48364;BME280;34170;54.364;18.582;2023-08-20T11:09:30;100677.44;;;28.47;74.32
48364;BME280;34170;54.364;18.582;2023-08-20T11:11:58;100678.13;;;28.37;76.41
48364;BME280;34170;54.364;18.582;2023-08-20T11:14:26;100676.19;;;28.38;77.56
48364;BME280;34170;54.364;18.582;2023-08-20T11:16:54;100679.53;;;28.40;77.68
48364;BME280;34170;54.364;18.582;2023-08-20T11:19:23;100678.00;;;28.10;79.63
48364;BME280;34170;54.364;18.582;2023-08-20T11:21:51;100666.81;;;27.54;81.33
48364;BME280;34170;54.364;18.582;2023-08-20T11:24:19;100655.91;;;27.30;83.54
48364;BME280;34170;54.364;18.582;2023-08-20T11:26:48;100670.38;;;27.37;83.82
48364;BME280;34170;54.364;18.582;2023-08-20T11:29:16;100663.06;;;27.60;81.94
48364;BME280;34170;54.364;18.582;2023-08-20T11:31:48;100665.09;;;26.43;89.81
48364;BME280;34170;54.364;18.582;2023-08-20T11:34:18;100665.38;;;25.64;96.57
48364;BME280;34170;54.364;18.582;2023-08-20T11:36:46;100681.88;;;26.53;90.37
48364;BME280;34170;54.364;18.582;2023-08-20T11:39:13;100678.97;;;26.72;88.60
48364;BME280;34170;54.364;18.582;2023-08-20T11:41:44;100687.56;;;26.99;87.64
48364;BME280;34170;54.364;18.582;2023-08-20T11:44:19;100678.56;;;27.32;86.29
48364;BME280;34170;54.364;18.582;2023-08-20T11:46:47;100675.34;;;27.52;83.69
48364;BME280;34170;54.364;18.582;2023-08-20T11:49:15;100689.13;;;27.24;85.65
48364;BME280;34170;54.364;18.582;2023-08-20T11:51:52;100693.91;;;26.99;86.38
48364;BME280;34170;54.364;18.582;2023-08-20T11:54:19;100708.69;;;27.22;86.10
48364;BME280;34170;54.364;18.582;2023-08-20T11:56:49;100722.84;;;27.26;86.87
48364;BME280;34170;54.364;18.582;2023-08-20T11:59:19;100728.03;;;26.81;90.36
48364;BME280;34170;54.364;18.582;2023-08-20T12:01:51;100717.22;;;26.92;89.11
48364;BME280;34170;54.364;18.582;2023-08-20T12:04:23;100708.28;;;27.13;89.63
48364;BME280;34170;54.364;18.582;2023-08-20T12:07:24;100705.22;;;27.55;87.84
48364;BME280;34170;54.364;18.582;2023-08-20T12:09:51;100721.63;;;27.91;84.37
48364;BME280;34170;54.364;18.582;2023-08-20T12:12:20;100719.63;;;27.57;87.44
48364;BME280;34170;54.364;18.582;2023-08-20T12:14:48;100719.44;;;27.76;85.40
48364;BME280;34170;54.364;18.582;2023-08-20T12:17:19;100705.66;;;27.93;83.18
48364;BME280;34170;54.364;18.582;2023-08-20T12:19:46;100721.22;;;28.16;81.77
48364;BME280;34170;54.364;18.582;2023-08-20T12:22:14;100725.28;;;28.64;79.45
48364;BME280;34170;54.364;18.582;2023-08-20T12:24:42;100711.72;;;28.85;78.86
48364;BME280;34170;54.364;18.582;2023-08-20T12:27:09;100717.78;;;28.82;80.17
48364;BME280;34170;54.364;18.582;2023-08-20T12:29:37;100698.56;;;28.53;83.21
48364;BME280;34170;54.364;18.582;2023-08-20T12:32:05;100703.78;;;28.32;84.14
48364;BME280;34170;54.364;18.582;2023-08-20T12:34:34;100697.75;;;28.36;87.10
48364;BME280;34170;54.364;18.582;2023-08-20T12:40:34;100704.00;;;28.48;86.34
48364;BME280;34170;54.364;18.582;2023-08-20T12:43:03;100704.59;;;28.33;89.14
48364;BME280;34170;54.364;18.582;2023-08-20T12:45:30;100693.25;;;28.68;89.11
48364;BME280;34170;54.364;18.582;2023-08-20T12:47:58;100671.84;;;28.81;84.53
48364;BME280;34170;54.364;18.582;2023-08-20T12:50:29;100671.75;;;28.76;83.82
48364;BME280;34170;54.364;18.582;2023-08-20T12:52:57;100686.44;;;28.20;87.65
48364;BME280;34170;54.364;18.582;2023-08-20T12:55:24;100687.63;;;28.24;88.92
48364;BME280;34170;54.364;18.582;2023-08-20T12:57:56;100665.41;;;28.36;85.22
48364;BME280;34170;54.364;18.582;2023-08-20T13:09:27;100688.78;;;27.32;82.96
48364;BME280;34170;54.364;18.582;2023-08-20T13:11:56;100677.03;;;27.53;81.47
48364;BME280;34170;54.364;18.582;2023-08-20T13:14:25;100680.75;;;27.76;83.28
48364;BME280;34170;54.364;18.582;2023-08-20T13:16:53;100676.50;;;28.02;81.70
48364;BME280;34170;54.364;18.582;2023-08-20T13:19:21;100691.66;;;27.54;81.08
48364;BME280;34170;54.364;18.582;2023-08-20T13:21:48;100686.34;;;27.64;81.41
48364;BME280;34170;54.364;18.582;2023-08-20T13:24:16;100677.13;;;27.75;80.55
48364;BME280;34170;54.364;18.582;2023-08-20T13:26:44;100674.28;;;27.70;80.19
48364;BME280;34170;54.364;18.582;2023-08-20T13:33:43;100680.56;;;27.66;79.26
48364;BME280;34170;54.364;18.582;2023-08-20T13:36:11;100681.28;;;27.44;80.76
48364;BME280;34170;54.364;18.582;2023-08-20T13:38:39;100684.84;;;27.28;80.28